This is the latest recevied weather packets stored in our database for station/object PY2KO-3. If no packets are shown the sender has not sent any weather packets the latest 10 day(s).
| Time | Temp. | Humidity | Pressure | Rain* | Wind** | Luminosity | Snow |
|---|---|---|---|---|---|---|---|
| 1777520051 | 17.78° C | 91% | 1022 hPa | - | - | - | - |
| 1777519151 | 18.89° C | 85% | 1021.3 hPa | - | - | - | - |
| 1777518251 | 19.44° C | 84% | 1021.1 hPa | - | - | - | - |
| 1777517351 | 18.89° C | 86% | 1021.3 hPa | - | - | - | - |
| 1777516453 | 19.44° C | 84% | 1021.4 hPa | - | - | - | - |
| 1777515551 | 18.89° C | 88% | 1021.6 hPa | - | - | - | - |
| 1777514651 | 18.89° C | 87% | 1021.6 hPa | - | - | - | - |
| 1777513751 | 19.44° C | 86% | 1021.3 hPa | - | - | - | - |
| 1777512859 | 19.44° C | 85% | 1021.7 hPa | - | - | - | - |
| 1777511952 | 19.44° C | 85% | 1021.5 hPa | - | - | - | - |
| 1777511051 | 18.89° C | 88% | 1021.5 hPa | - | - | - | - |
| 1777510156 | 18.89° C | 88% | 1020.9 hPa | - | - | - | - |
| 1777509251 | 18.89° C | 88% | 1021 hPa | - | - | - | - |
| 1777508352 | 18.89° C | 87% | 1020.9 hPa | - | - | - | - |
| 1777507452 | 18.89° C | 86% | 1020.6 hPa | - | - | - | - |
| 1777506552 | 18.89° C | 86% | 1020.6 hPa | - | - | - | - |
| 1777505651 | 18.33° C | 87% | 1020.7 hPa | - | - | - | - |
| 1777504751 | 18.89° C | 85% | 1020.9 hPa | - | - | - | - |
| 1777503851 | 19.44° C | 86% | 1020.8 hPa | - | - | - | - |
| 1777502951 | 18.89° C | 87% | 1020.4 hPa | - | - | - | - |
| 1777502051 | 18.89° C | 87% | 1020.7 hPa | - | - | - | - |
| 1777501151 | 18.89° C | 86% | 1020.7 hPa | - | - | - | - |
| 1777500251 | 18.89° C | 86% | 1020.7 hPa | - | - | - | - |
| 1777499351 | 18.89° C | 89% | 1020.1 hPa | - | - | - | - |
| 1777498451 | 18.89° C | 88% | 1020 hPa | - | - | - | - |
* Rain since midnight (hover to see other rain measurements)
** Current wind speed in m/s (hover to see current wind gust speed)